Time;durP1;ratioP1;P1;durP2;ratioP2;P2;SDS_P1;SDS_P2;PMS_P1;PMS_P2;Temp;Humidity;BMP_temperature;BMP_pressure;BME280_temperature;BME280_humidity;BME280_pressure;Samples;Min_cycle;Max_cycle;Signal;HPM_P1;HPM_P2
2022/09/09 00:02:56;;;;;;;;;;;16.60;99.90;;;15.46;100.00;95433.63;10486939;28;2645;-64
2022/09/09 00:07:59;;;;;;;;;;;16.60;99.90;;;15.55;100.00;95439.84;10488668;28;2300;-64
2022/09/09 00:13:01;;;;;;;;;;;16.50;99.90;;;15.54;100.00;95426.63;10485528;28;2603;-64
2022/09/09 00:18:04;;;;;;;;;;;16.50;99.90;;;15.56;100.00;95422.50;10489611;28;2591;-64
2022/09/09 00:23:07;;;;;;;;;;;16.50;99.90;;;15.49;100.00;95426.78;10487262;28;2963;-65
2022/09/09 00:28:10;;;;;;;;;;;16.50;99.90;;;15.44;100.00;95427.69;10489045;28;2671;-64
2022/09/09 00:33:14;;;;;;;;;;;16.40;99.90;;;15.56;100.00;95421.69;10484372;28;2676;-65
2022/09/09 00:38:17;;;;;;;;;;;16.40;99.90;;;15.58;100.00;95422.16;10487713;28;2658;-63
2022/09/09 00:43:22;;;;;;;;;;;16.50;99.90;;;15.54;100.00;95424.72;10486187;28;2799;-63
2022/09/09 00:48:24;;;;;;;;;;;16.50;99.90;;;15.41;100.00;95425.63;10488297;28;2312;-63
2022/09/09 00:53:29;;;;;;;;;;;16.40;99.90;;;15.45;100.00;95421.16;10483465;28;2576;-63
2022/09/09 00:58:32;;;;;;;;;;;16.40;99.90;;;15.39;100.00;95425.91;10486332;28;2665;-64
2022/09/09 01:03:36;;;;;;;;;;;16.30;99.90;;;15.28;100.00;95421.13;10484352;28;2617;-64
2022/09/09 01:08:39;;;;;;;;;;;16.30;99.90;;;15.20;100.00;95429.97;10484983;28;2565;-64
2022/09/09 01:13:42;;;;;;;;;;;16.20;99.90;;;15.21;100.00;95424.28;10481234;28;2571;-64
2022/09/09 01:18:44;;;;;;;;;;;16.20;99.90;;;15.37;100.00;95430.84;10488077;28;2703;-64
2022/09/09 01:23:48;;;;;;;;;;;16.20;99.90;;;15.49;100.00;95427.56;10485415;28;3034;-64
2022/09/09 01:28:52;;;;;;;;;;;16.30;99.90;;;15.55;100.00;95431.72;10485902;28;2596;-65
2022/09/09 01:33:55;;;;;;;;;;;16.40;99.90;;;15.56;100.00;95427.91;10469756;28;2634;-65
2022/09/09 01:38:57;;;;;;;;;;;16.40;99.90;;;15.70;100.00;95427.81;10484358;28;2653;-65
2022/09/09 01:44:00;;;;;;;;;;;16.50;99.90;;;15.75;100.00;95418.75;10476947;28;2336;-65
2022/09/09 01:49:03;;;;;;;;;;;16.60;99.90;;;15.63;100.00;95427.47;10485307;28;2574;-65
2022/09/09 01:54:06;;;;;;;;;;;16.50;99.90;;;15.60;100.00;95428.88;10483828;28;2614;-63
2022/09/09 01:59:08;;;;;;;;;;;16.60;99.90;;;15.71;100.00;95434.03;10483726;28;2677;-64
2022/09/09 02:04:11;;;;;;;;;;;16.50;99.90;;;15.51;100.00;95427.25;10482846;28;2637;-64
2022/09/09 02:09:14;;;;;;;;;;;16.50;99.90;;;15.41;100.00;95425.63;10484455;28;2753;-62
2022/09/09 02:14:17;;;;;;;;;;;16.40;99.90;;;15.28;100.00;95418.41;10468485;28;2352;-63
2022/09/09 02:19:26;;;;;;;;;;;16.20;99.90;;;15.17;100.00;95412.44;10484289;28;2616;-68
2022/09/09 02:24:29;;;;;;;;;;;16.20;99.90;;;15.11;100.00;95422.63;10479161;28;2651;-63
2022/09/09 02:29:32;;;;;;;;;;;16.10;99.90;;;15.05;100.00;95417.63;10481684;28;2387;-64
2022/09/09 02:34:34;;;;;;;;;;;16.00;99.90;;;15.18;100.00;95415.97;10483965;28;2311;-64
2022/09/09 02:39:37;;;;;;;;;;;16.10;99.90;;;15.28;100.00;95407.56;10482164;28;2607;-63
2022/09/09 02:44:40;;;;;;;;;;;16.10;99.90;;;15.46;100.00;95406.53;10493125;28;2647;-64
2022/09/09 02:49:43;;;;;;;;;;;16.20;99.90;;;15.54;100.00;95403.06;10497459;28;2645;-64
2022/09/09 02:54:46;;;;;;;;;;;16.30;99.90;;;15.45;100.00;95409.53;10491836;28;2677;-63
2022/09/09 02:59:48;;;;;;;;;;;16.30;99.90;;;15.49;100.00;95410.50;10490883;28;2633;-65
2022/09/09 03:04:51;;;;;;;;;;;16.40;99.90;;;15.57;100.00;95407.81;10488357;28;2323;-65
2022/09/09 03:09:54;;;;;;;;;;;16.40;99.90;;;15.38;100.00;95405.38;10489172;28;2647;-63
2022/09/09 03:14:57;;;;;;;;;;;16.30;99.90;;;15.34;100.00;95399.00;10481695;28;2593;-64
2022/09/09 03:20:01;;;;;;;;;;;16.20;99.90;;;15.34;100.00;95403.63;10489335;28;3040;-63
2022/09/09 03:25:04;;;;;;;;;;;16.20;99.90;;;15.22;100.00;95403.41;10488566;28;2340;-64
2022/09/09 03:30:07;;;;;;;;;;;16.20;99.90;;;15.09;100.00;95403.19;10490619;28;2288;-64
2022/09/09 03:35:09;;;;;;;;;;;16.10;99.90;;;14.95;100.00;95397.06;10491453;28;2356;-67
2022/09/09 03:40:12;;;;;;;;;;;16.00;99.90;;;15.08;100.00;95400.78;10488300;28;2637;-63
2022/09/09 03:45:16;;;;;;;;;;;16.00;99.90;;;15.41;100.00;95393.13;10487788;28;2617;-64
2022/09/09 03:50:19;;;;;;;;;;;15.90;99.90;;;15.48;100.00;95393.47;10489446;28;2634;-65
2022/09/09 03:55:22;;;;;;;;;;;16.20;99.90;;;15.56;100.00;95391.88;10489343;28;2602;-65
2022/09/09 04:00:25;;;;;;;;;;;16.40;99.90;;;15.59;100.00;95388.56;10486871;28;2379;-68
2022/09/09 04:05:28;;;;;;;;;;;16.30;99.90;;;15.73;100.00;95380.34;10489298;28;2604;-64
2022/09/09 04:10:31;;;;;;;;;;;16.40;99.90;;;15.76;100.00;95385.13;10490241;28;2669;-65
2022/09/09 04:15:35;;;;;;;;;;;16.50;99.90;;;15.79;100.00;95379.09;10481363;28;2655;-64
2022/09/09 04:20:38;;;;;;;;;;;16.60;99.90;;;15.79;100.00;95376.38;10488612;28;2638;-64
2022/09/09 04:25:41;;;;;;;;;;;16.40;99.90;;;15.77;100.00;95375.88;10487416;28;2641;-64
2022/09/09 04:30:44;;;;;;;;;;;17.20;99.90;;;15.81;100.00;95371.44;10489995;28;2769;-65
2022/09/09 04:35:46;;;;;;;;;;;16.50;99.90;;;15.65;100.00;95358.34;10487101;28;2561;-64
2022/09/09 04:40:49;;;;;;;;;;;16.50;99.90;;;15.37;100.00;95370.47;10485629;28;2578;-64
2022/09/09 04:45:52;;;;;;;;;;;16.40;99.90;;;15.18;100.00;95364.50;10482798;28;2614;-66
2022/09/09 04:50:55;;;;;;;;;;;;;;;15.08;100.00;95371.81;10479207;28;2268;-64
2022/09/09 04:55:59;;;;;;;;;;;15.90;99.90;;;15.05;100.00;95369.72;10484053;28;2462;-66
2022/09/09 05:01:02;;;;;;;;;;;16.20;99.90;;;14.91;100.00;95362.81;10485290;28;2652;-65
2022/09/09 05:06:05;;;;;;;;;;;15.90;99.90;;;15.06;100.00;95363.19;10482818;28;2446;-64
2022/09/09 05:11:09;;;;;;;;;;;15.60;99.90;;;15.11;100.00;95367.66;10486412;28;2624;-64
2022/09/09 05:16:12;;;;;;;;;;;16.00;99.90;;;15.92;100.00;95378.94;10475506;28;3063;-62
2022/09/09 05:21:15;;;;;;;;;;;16.20;99.90;;;15.45;100.00;95377.81;10474187;28;2339;-67
2022/09/09 05:26:18;;;;;;;;;;;16.30;99.90;;;15.42;100.00;95392.00;10478812;28;2621;-65
2022/09/09 05:31:21;;;;;;;;;;;16.30;99.90;;;15.26;100.00;95380.00;10477857;28;2701;-63
2022/09/09 05:36:23;;;;;;;;;;;16.20;99.90;;;15.36;100.00;95385.13;10479504;28;3002;-63
2022/09/09 05:41:30;;;;;;;;;;;16.20;99.90;;;16.02;100.00;95394.09;10480838;28;2502;-64
2022/09/09 05:46:32;;;;;;;;;;;16.50;99.90;;;16.38;100.00;95387.59;10486028;28;2304;-63
2022/09/09 05:51:35;;;;;;;;;;;17.00;99.90;;;16.60;100.00;95390.09;10483778;28;2605;-67
2022/09/09 05:56:38;;;;;;;;;;;17.10;99.90;;;16.51;100.00;95392.03;10484828;28;2600;-64
2022/09/09 06:01:42;;;;;;;;;;;17.10;99.90;;;16.91;100.00;95383.69;10490855;28;2320;-63
2022/09/09 06:06:45;;;;;;;;;;;17.40;99.90;;;17.13;100.00;95391.66;10482010;28;2618;-65
2022/09/09 06:11:48;;;;;;;;;;;17.60;99.90;;;16.74;100.00;95407.06;10483064;28;2659;-72
2022/09/09 06:16:51;;;;;;;;;;;17.90;99.90;;;16.51;100.00;95402.09;10492512;28;2386;-69
2022/09/09 06:21:54;;;;;;;;;;;17.50;99.90;;;16.37;100.00;95394.13;10492529;28;2630;-69
2022/09/09 06:26:57;;;;;;;;;;;17.20;99.90;;;16.24;100.00;95397.78;10496168;28;2315;-69
2022/09/09 06:32:00;;;;;;;;;;;17.00;99.90;;;16.31;100.00;95401.63;10486477;28;2670;-69
2022/09/09 06:37:04;;;;;;;;;;;17.10;99.90;;;16.29;100.00;95395.72;10495624;28;2645;-69
2022/09/09 06:42:08;;;;;;;;;;;17.00;99.90;;;16.10;100.00;95393.31;10492623;28;2613;-68
2022/09/09 06:47:12;;;;;;;;;;;17.00;99.90;;;16.19;100.00;95399.53;10491691;28;2644;-68
2022/09/09 06:52:18;;;;;;;;;;;16.90;99.90;;;16.36;100.00;95403.38;10475533;28;2776;-69
2022/09/09 06:57:20;;;;;;;;;;;17.00;99.90;;;16.59;100.00;95404.78;10488034;28;2598;-69
2022/09/09 07:02:40;;;;;;;;;;;17.20;99.90;;;16.90;100.00;95414.69;10492133;28;2551;-70
2022/09/09 07:07:43;;;;;;;;;;;17.50;99.90;;;16.97;100.00;95412.28;10488332;28;2714;-70
2022/09/09 07:12:46;;;;;;;;;;;17.70;99.90;;;17.07;100.00;95417.38;10491417;28;2315;-69
2022/09/09 07:17:49;;;;;;;;;;;17.70;99.90;;;16.93;100.00;95442.00;10486990;28;2762;-75
2022/09/09 07:22:52;;;;;;;;;;;17.70;99.90;;;16.65;100.00;95473.28;10490040;28;2594;-69
2022/09/09 07:27:55;;;;;;;;;;;17.50;99.90;;;15.93;100.00;95463.78;10487085;28;2734;-69
2022/09/09 07:32:59;;;;;;;;;;;17.00;99.90;;;15.97;100.00;95474.75;10491447;28;2743;-70
2022/09/09 07:38:01;;;;;;;;;;;16.80;99.90;;;16.10;100.00;95474.66;10491686;28;2635;-74
2022/09/09 07:43:04;;;;;;;;;;;16.80;99.90;;;16.46;100.00;95470.88;10492503;28;2642;-75
2022/09/09 07:48:07;;;;;;;;;;;17.00;99.90;;;17.12;100.00;95482.38;10493513;28;2578;-72
2022/09/09 07:53:10;;;;;;;;;;;17.40;99.90;;;17.50;100.00;95487.91;10492322;28;2791;-68
2022/09/09 07:58:13;;;;;;;;;;;17.80;99.90;;;17.79;100.00;95487.16;10476333;28;2678;-70
2022/09/09 08:03:16;;;;;;;;;;;18.20;99.90;;;17.97;100.00;95487.91;10488405;28;2656;-68
2022/09/09 08:08:24;;;;;;;;;;;18.40;99.90;;;18.34;100.00;95483.53;10494133;28;2828;-70
2022/09/09 08:13:28;;;;;;;;;;;18.70;99.90;;;18.45;100.00;95483.94;10491379;28;2578;-68
2022/09/09 08:18:31;;;;;;;;;;;19.00;99.90;;;18.38;100.00;95505.41;10486528;28;2588;-70
2022/09/09 08:23:33;;;;;;;;;;;19.00;99.90;;;18.59;100.00;95505.47;10483470;28;2631;-69
2022/09/09 08:28:36;;;;;;;;;;;19.10;99.90;;;18.49;100.00;95503.91;10485276;28;2697;-71
2022/09/09 08:33:39;;;;;;;;;;;19.10;99.90;;;18.53;100.00;95518.47;10485728;28;2605;-69
2022/09/09 08:38:42;;;;;;;;;;;19.10;99.90;;;18.56;100.00;95511.56;10488792;28;2580;-69
2022/09/09 08:43:45;;;;;;;;;;;19.30;99.90;;;18.73;100.00;95525.09;10469958;28;2727;-70
2022/09/09 08:48:48;;;;;;;;;;;19.30;99.90;;;18.49;100.00;95516.72;10493045;28;2316;-69
2022/09/09 08:53:51;;;;;;;;;;;19.20;99.90;;;18.03;100.00;95521.16;10493259;28;2625;-69
2022/09/09 08:59:01;;;;;;;;;;;;;;;17.24;100.00;95520.56;10486032;28;2392;-70
2022/09/09 09:04:05;;;;;;;;;;;18.70;99.90;;;17.14;100.00;95523.59;10478937;28;2391;-74
2022/09/09 09:09:09;;;;;;;;;;;18.20;99.90;;;16.87;100.00;95521.22;10491186;28;2281;-73
2022/09/09 09:14:12;;;;;;;;;;;17.90;99.90;;;17.01;100.00;95511.00;10486236;28;2624;-69
2022/09/09 09:19:16;;;;;;;;;;;17.70;99.90;;;17.28;100.00;95513.34;10486397;28;2633;-69
2022/09/09 09:24:19;;;;;;;;;;;17.80;99.90;;;17.19;100.00;95509.84;10487036;28;2785;-70
2022/09/09 09:29:23;;;;;;;;;;;18.00;99.90;;;17.62;100.00;95519.00;10487796;28;2615;-69
2022/09/09 09:34:26;;;;;;;;;;;18.20;99.90;;;18.46;100.00;95518.19;10483683;28;2288;-68
2022/09/09 09:39:29;;;;;;;;;;;18.70;99.90;;;18.99;100.00;95521.38;10483779;28;2683;-68
2022/09/09 09:44:52;;;;;;;;;;;19.20;99.90;;;19.34;100.00;95524.56;10477458;28;2626;-70
2022/09/09 09:49:55;;;;;;;;;;;19.70;99.90;;;19.21;100.00;95518.28;10486573;28;2628;-69
2022/09/09 09:54:58;;;;;;;;;;;19.90;99.90;;;19.13;98.97;95514.50;10481459;28;2438;-70
2022/09/09 10:00:09;;;;;;;;;;;19.70;99.90;;;18.92;100.00;95523.84;10485033;28;2661;-68
2022/09/09 10:05:12;;;;;;;;;;;19.60;99.90;;;18.78;100.00;95521.38;10481360;28;2654;-69
2022/09/09 10:10:15;;;;;;;;;;;19.50;99.90;;;18.44;100.00;95522.34;10484965;28;2359;-69
2022/09/09 10:15:18;;;;;;;;;;;19.40;99.90;;;18.32;100.00;95513.00;10467879;28;2776;-69
2022/09/09 10:20:21;;;;;;;;;;;19.20;99.90;;;18.29;100.00;95508.22;10483515;28;2317;-69
2022/09/09 10:25:24;;;;;;;;;;;19.10;99.90;;;18.42;100.00;95516.47;10484598;28;2638;-68
2022/09/09 10:30:26;;;;;;;;;;;19.00;99.90;;;18.55;100.00;95520.84;10485433;28;2747;-69
2022/09/09 10:35:29;;;;;;;;;;;19.20;99.90;;;18.81;100.00;95515.25;10481587;28;2414;-68
2022/09/09 10:40:32;;;;;;;;;;;19.30;99.90;;;19.10;100.00;95508.94;10481534;28;2347;-72
2022/09/09 10:45:36;;;;;;;;;;;19.60;99.90;;;19.78;97.01;95516.75;10482936;28;2354;-71
2022/09/09 10:50:39;;;;;;;;;;;20.00;99.90;;;20.40;90.43;95516.47;10487999;28;2625;-71
2022/09/09 10:56:02;;;;;;;;;;;20.50;99.90;;;20.41;89.52;95518.06;10484547;28;2734;-73
2022/09/09 11:01:07;;;;;;;;;;;20.90;99.90;;;20.58;86.97;95516.25;10485539;28;2343;-69
2022/09/09 11:06:10;;;;;;;;;;;20.90;99.90;;;20.97;84.00;95512.75;10490812;28;2399;-70
2022/09/09 11:11:16;;;;;;;;;;;21.30;99.90;;;21.44;78.09;95508.59;10490522;28;2344;-75
2022/09/09 11:16:19;;;;;;;;;;;21.80;99.90;;;22.00;73.36;95503.81;10491440;28;2675;-71
2022/09/09 11:21:22;;;;;;;;;;;22.10;99.90;;;22.19;71.81;95507.81;10493339;28;2648;-68
2022/09/09 11:26:25;;;;;;;;;;;22.60;99.90;;;22.28;70.43;95498.28;10492017;28;2395;-70
2022/09/09 11:31:28;;;;;;;;;;;22.70;99.90;;;22.60;67.01;95501.75;10494013;28;2802;-71
2022/09/09 11:36:31;;;;;;;;;;;22.80;99.90;;;22.61;67.20;95497.88;10490202;28;2367;-68
2022/09/09 11:41:34;;;;;;;;;;;23.00;99.90;;;23.04;65.74;95496.09;10492679;28;2654;-69
2022/09/09 11:46:37;;;;;;;;;;;23.20;99.90;;;23.19;65.04;95492.47;10491003;28;2550;-71
2022/09/09 11:51:40;;;;;;;;;;;23.60;99.90;;;22.77;64.79;95494.28;10489806;28;2770;-73
2022/09/09 11:56:43;;;;;;;;;;;23.40;99.90;;;22.73;62.79;95494.22;10487926;28;2288;-71
2022/09/09 12:01:46;;;;;;;;;;;23.40;99.90;;;22.32;65.65;95496.41;10491281;28;2292;-72
2022/09/09 12:06:50;;;;;;;;;;;23.10;99.90;;;21.99;66.42;95498.69;10488056;28;2708;-72
2022/09/09 12:11:53;;;;;;;;;;;22.80;99.90;;;21.95;67.60;95495.91;10489505;28;2653;-68
2022/09/09 12:16:56;;;;;;;;;;;22.60;99.90;;;22.01;65.91;95494.47;10490388;28;2618;-72
2022/09/09 12:21:59;;;;;;;;;;;22.50;99.90;;;22.32;64.39;95490.94;10499467;28;2300;-72
2022/09/09 12:27:06;;;;;;;;;;;22.60;99.90;;;21.88;65.98;95483.94;10489282;28;2701;-71
2022/09/09 12:32:09;;;;;;;;;;;22.60;99.90;;;21.96;64.69;95486.53;10482782;28;2646;-70
2022/09/09 12:37:15;;;;;;;;;;;22.60;99.90;;;22.21;65.17;95481.69;10488804;28;2648;-69
2022/09/09 12:42:17;;;;;;;;;;;22.70;99.90;;;22.33;65.31;95472.56;10482586;28;2601;-70
2022/09/09 12:47:20;;;;;;;;;;;22.80;99.90;;;22.73;63.71;95474.25;10486345;28;2770;-69
2022/09/09 12:52:23;;;;;;;;;;;23.20;99.90;;;23.10;61.37;95472.72;10484272;28;2661;-69
2022/09/09 12:57:26;;;;;;;;;;;23.40;99.90;;;23.25;60.40;95465.56;10486890;28;2561;-67
2022/09/09 13:02:29;;;;;;;;;;;23.70;99.90;;;23.18;61.37;95460.72;10486850;28;2628;-67
2022/09/09 13:07:32;;;;;;;;;;;23.70;99.90;;;22.76;63.65;95457.88;10485426;28;2574;-68
2022/09/09 13:12:35;;;;;;;;;;;23.50;99.90;;;22.39;65.59;95455.53;10485653;28;2601;-68
2022/09/09 13:17:41;;;;;;;;;;;23.20;99.90;;;21.85;67.65;95439.75;10487494;28;2644;-68
2022/09/09 13:22:45;;;;;;;;;;;22.80;99.90;;;21.93;68.00;95432.50;10469002;28;2580;-68
2022/09/09 13:27:48;;;;;;;;;;;22.70;99.90;;;22.12;67.87;95435.31;10485190;28;2653;-68
2022/09/09 13:32:50;;;;;;;;;;;22.70;99.90;;;22.39;66.22;95421.84;10482821;28;2619;-69
2022/09/09 13:37:54;;;;;;;;;;;22.90;99.90;;;22.82;64.23;95422.75;10483904;28;2573;-68
2022/09/09 13:42:58;;;;;;;;;;;23.20;99.90;;;22.31;65.88;95417.38;10482264;28;2652;-68
2022/09/09 13:48:01;;;;;;;;;;;23.20;99.90;;;22.34;64.35;95413.94;10479563;28;2611;-68
2022/09/09 13:53:05;;;;;;;;;;;23.00;99.90;;;21.54;68.34;95412.38;10484552;28;2607;-68
2022/09/09 13:58:08;;;;;;;;;;;22.60;99.90;;;21.17;70.76;95406.31;10484915;28;2273;-68
2022/09/09 14:03:11;;;;;;;;;;;22.10;99.90;;;20.99;72.24;95408.56;10481393;28;2348;-68
2022/09/09 14:08:14;;;;;;;;;;;21.90;99.90;;;20.60;74.46;95410.19;10481200;28;2559;-69
2022/09/09 14:13:17;;;;;;;;;;;21.70;99.90;;;20.63;74.60;95412.25;10484240;28;2593;-68
2022/09/09 14:18:22;;;;;;;;;;;21.40;99.90;;;20.22;76.74;95412.19;10478161;28;2649;-68
2022/09/09 14:23:24;;;;;;;;;;;21.30;99.90;;;20.21;77.84;95420.72;10477950;28;2348;-68
2022/09/09 14:28:28;;;;;;;;;;;21.00;99.90;;;20.42;76.87;95424.13;10481480;28;2740;-68
2022/09/09 14:33:52;;;;;;;;;;;21.10;99.90;;;20.58;73.75;95423.41;10480534;28;2288;-69
2022/09/09 14:38:55;;;;;;;;;;;21.20;99.90;;;20.47;74.43;95429.34;10490048;28;2712;-75
2022/09/09 14:43:59;;;;;;;;;;;21.30;99.90;;;20.21;75.52;95443.34;10489338;28;2645;-70
2022/09/09 14:49:03;;;;;;;;;;;21.00;99.90;;;20.04;77.15;95437.34;10493931;28;2555;-71
2022/09/09 14:54:06;;;;;;;;;;;20.90;99.90;;;20.04;77.29;95440.06;10489064;28;2572;-70
2022/09/09 14:59:09;;;;;;;;;;;20.80;99.90;;;19.74;77.79;95445.75;10489490;28;2582;-68
2022/09/09 15:04:12;;;;;;;;;;;20.70;99.90;;;19.74;77.15;95448.50;10487368;28;2637;-69
2022/09/09 15:09:15;;;;;;;;;;;20.50;99.90;;;19.55;77.29;95437.31;10486627;28;2338;-69
2022/09/09 15:14:18;;;;;;;;;;;20.50;99.90;;;19.51;77.84;95436.38;10486168;28;2595;-69
2022/09/09 15:19:25;;;;;;;;;;;20.40;99.90;;;19.77;76.11;95441.53;10501528;28;2319;-68
2022/09/09 15:24:28;;;;;;;;;;;20.30;99.90;;;19.84;74.34;95426.19;10485463;28;2665;-69
2022/09/09 15:29:31;;;;;;;;;;;20.60;99.90;;;19.79;72.74;95429.19;10488966;28;2593;-69
2022/09/09 15:34:34;;;;;;;;;;;20.60;99.90;;;20.23;69.81;95412.97;10470357;28;2631;-69
2022/09/09 15:39:37;;;;;;;;;;;20.70;99.90;;;20.40;68.25;95412.72;10468870;28;2618;-69
2022/09/09 15:44:41;;;;;;;;;;;21.00;99.90;;;20.27;68.27;95407.63;10484187;28;2801;-71
2022/09/09 15:49:44;;;;;;;;;;;21.00;99.90;;;20.15;69.39;95400.25;10488060;28;2655;-69
2022/09/09 15:54:47;;;;;;;;;;;21.00;99.90;;;20.18;70.56;95391.41;10472399;28;2476;-70
2022/09/09 15:59:50;;;;;;;;;;;20.90;99.90;;;20.06;69.71;95394.94;10500054;28;2652;-70
2022/09/09 16:04:54;;;;;;;;;;;20.80;99.90;;;19.94;70.76;95392.22;10467373;28;2732;-70
2022/09/09 16:09:57;;;;;;;;;;;20.80;99.90;;;19.49;72.22;95397.75;10486329;28;2316;-69
2022/09/09 16:15:01;;;;;;;;;;;20.60;99.90;;;19.00;75.74;95394.94;10490791;28;2606;-70
2022/09/09 16:20:05;;;;;;;;;;;20.10;99.90;;;18.71;76.86;95404.84;10485740;28;2561;-69
2022/09/09 16:25:08;;;;;;;;;;;19.90;99.90;;;18.86;77.33;95395.25;10485581;28;2320;-69
2022/09/09 16:30:11;;;;;;;;;;;19.70;99.90;;;19.15;75.35;95389.66;10486770;28;2565;-69
2022/09/09 16:35:14;;;;;;;;;;;19.80;99.90;;;19.41;73.26;95383.91;10482548;28;2585;-69
2022/09/09 16:40:17;;;;;;;;;;;20.00;99.90;;;19.08;72.60;95385.88;10485417;28;2992;-69
2022/09/09 16:45:20;;;;;;;;;;;20.00;99.90;;;18.55;75.12;95374.66;10486870;28;2933;-70
2022/09/09 16:50:22;;;;;;;;;;;19.70;99.90;;;18.22;77.00;95371.09;10489248;28;2871;-70
2022/09/09 16:55:25;;;;;;;;;;;19.30;99.90;;;18.00;79.08;95377.66;10483632;28;2854;-69
2022/09/09 17:00:28;;;;;;;;;;;19.10;99.90;;;17.78;80.65;95379.56;10488493;28;2924;-69
2022/09/09 17:05:32;;;;;;;;;;;18.90;99.90;;;17.61;82.09;95392.41;10493988;28;2955;-69
2022/09/09 17:10:35;;;;;;;;;;;18.70;99.90;;;17.38;83.82;95383.72;10491163;28;2915;-71
2022/09/09 17:15:39;;;;;;;;;;;18.50;99.90;;;17.15;86.91;95394.81;10483189;28;2439;-72
2022/09/09 17:20:43;;;;;;;;;;;18.40;99.90;;;17.05;87.63;95388.94;10484684;28;3094;-76
2022/09/09 17:25:48;;;;;;;;;;;18.20;99.90;;;16.91;88.88;95394.56;10483225;28;2848;-69
2022/09/09 17:30:56;;;;;;;;;;;18.00;99.90;;;16.75;91.22;95399.72;10485739;28;2352;-68
2022/09/09 17:35:59;;;;;;;;;;;17.90;99.90;;;16.58;92.99;95394.28;10485704;28;2313;-69
2022/09/09 17:41:02;;;;;;;;;;;17.80;99.90;;;16.51;94.98;95404.81;10484206;28;2939;-70
2022/09/09 17:46:05;;;;;;;;;;;17.60;99.90;;;16.37;96.37;95413.13;10482100;28;2931;-70
2022/09/09 17:51:08;;;;;;;;;;;17.60;99.90;;;16.30;98.31;95415.50;10486892;28;2309;-68
2022/09/09 17:56:11;;;;;;;;;;;17.40;99.90;;;16.17;99.22;95426.19;10485565;28;2902;-68
2022/09/09 18:01:14;;;;;;;;;;;17.30;99.90;;;16.08;100.00;95419.94;10485236;28;2336;-71
2022/09/09 18:06:17;;;;;;;;;;;17.20;99.90;;;16.06;100.00;95424.88;10478882;28;2911;-69
2022/09/09 18:11:26;;;;;;;;;;;17.10;99.90;;;16.03;100.00;95435.56;10481130;28;2958;-69
2022/09/09 18:16:29;;;;;;;;;;;17.10;99.90;;;15.94;100.00;95417.38;10483623;28;2951;-77
2022/09/09 18:21:32;;;;;;;;;;;17.00;99.90;;;15.90;100.00;95431.84;10488258;28;2918;-75
2022/09/09 18:26:35;;;;;;;;;;;16.90;99.90;;;15.87;100.00;95433.28;10485013;28;2947;-70
2022/09/09 18:31:38;;;;;;;;;;;16.90;99.90;;;15.78;100.00;95434.41;10484998;28;2905;-70
2022/09/09 18:36:41;;;;;;;;;;;16.80;99.90;;;15.62;100.00;95451.06;10484744;28;2855;-70
2022/09/09 18:41:43;;;;;;;;;;;16.80;99.90;;;15.64;100.00;95462.38;10482866;28;2333;-68
2022/09/09 18:46:47;;;;;;;;;;;16.60;99.90;;;15.53;100.00;95476.50;10483324;28;2902;-68
2022/09/09 18:51:50;;;;;;;;;;;16.60;99.90;;;15.54;100.00;95470.78;10484911;28;2852;-69
2022/09/09 18:56:54;;;;;;;;;;;16.60;99.90;;;15.60;100.00;95466.81;10484467;28;2929;-68
2022/09/09 19:02:01;;;;;;;;;;;16.60;99.90;;;15.62;100.00;95469.25;10482231;28;2845;-68
2022/09/09 19:07:04;;;;;;;;;;;16.50;99.90;;;15.52;100.00;95494.66;10481233;28;3030;-71
2022/09/09 19:12:07;;;;;;;;;;;16.50;99.90;;;15.69;100.00;95496.69;10483262;28;2343;-70
2022/09/09 19:17:12;;;;;;;;;;;16.50;99.90;;;15.88;100.00;95558.78;10482142;28;2929;-69
2022/09/09 19:22:15;;;;;;;;;;;16.70;99.90;;;15.89;100.00;95561.16;10485143;28;2352;-69
2022/09/09 19:27:18;;;;;;;;;;;16.60;99.90;;;15.04;100.00;95552.19;10490716;28;2934;-74
2022/09/09 19:32:21;;;;;;;;;;;16.40;99.90;;;14.07;100.00;95567.78;10488771;28;2954;-72
2022/09/09 19:37:45;;;;;;;;;;;15.40;99.90;;;13.63;100.00;95578.34;10482741;28;2981;-73
2022/09/09 19:42:52;;;;;;;;;;;14.70;99.90;;;13.56;100.00;95567.13;10496773;28;2888;-73
2022/09/09 19:47:55;;;;;;;;;;;14.60;99.90;;;13.63;100.00;95584.56;10488165;28;2997;-72
2022/09/09 19:52:58;;;;;;;;;;;14.60;99.90;;;13.71;100.00;95580.34;10486658;28;2989;-72
2022/09/09 19:58:03;;;;;;;;;;;14.60;99.90;;;13.66;100.00;95586.63;10491902;28;2873;-73
2022/09/09 20:03:06;;;;;;;;;;;14.70;99.90;;;13.51;100.00;95586.91;10490611;28;3013;-73
2022/09/09 20:08:20;;;;;;;;;;;14.70;99.90;;;13.27;100.00;95592.44;10489579;28;2935;-75
2022/09/09 20:13:23;;;;;;;;;;;14.50;99.90;;;13.21;100.00;95599.00;10487670;28;2921;-72
2022/09/09 20:18:26;;;;;;;;;;;14.40;99.90;;;13.17;100.00;95593.38;10487308;28;2899;-73
2022/09/09 20:23:29;;;;;;;;;;;14.30;99.90;;;13.05;100.00;95595.75;10489473;28;2912;-72
2022/09/09 20:28:33;;;;;;;;;;;14.30;99.90;;;12.94;100.00;95600.47;10488007;28;2936;-72
2022/09/09 20:33:36;;;;;;;;;;;14.10;99.90;;;12.89;100.00;95586.25;10492491;28;2912;-69
2022/09/09 20:38:38;;;;;;;;;;;14.10;99.90;;;12.82;100.00;95583.13;10494811;28;2460;-70
2022/09/09 20:43:41;;;;;;;;;;;14.00;99.90;;;12.73;100.00;95588.38;10494092;28;2339;-73
2022/09/09 20:48:44;;;;;;;;;;;13.90;99.90;;;12.78;100.00;95590.19;10486911;28;2917;-71
2022/09/09 20:53:48;;;;;;;;;;;13.90;99.90;;;12.81;100.00;95585.03;10486926;28;3004;-70
2022/09/09 20:58:51;;;;;;;;;;;13.90;99.90;;;12.91;100.00;95584.84;10487609;28;2883;-71
2022/09/09 21:03:54;;;;;;;;;;;13.90;99.90;;;13.12;100.00;95589.97;10484069;28;2858;-71
2022/09/09 21:08:57;;;;;;;;;;;14.00;99.90;;;13.30;100.00;95591.88;10487567;28;3326;-71
2022/09/09 21:13:59;;;;;;;;;;;14.10;99.90;;;13.50;100.00;95596.91;10482206;28;2850;-70
2022/09/09 21:19:03;;;;;;;;;;;14.30;99.90;;;13.66;100.00;95607.44;10485606;28;2288;-70
2022/09/09 21:24:06;;;;;;;;;;;14.50;99.90;;;13.86;100.00;95611.69;10485962;28;3053;-74
2022/09/09 21:29:09;;;;;;;;;;;14.60;99.90;;;14.11;100.00;95624.72;10469546;28;2975;-72
2022/09/09 21:34:14;;;;;;;;;;;14.80;99.90;;;14.27;100.00;95636.06;10485551;28;2981;-71
2022/09/09 21:39:17;;;;;;;;;;;15.00;99.90;;;14.35;100.00;95643.47;10490374;28;2372;-68
2022/09/09 21:44:19;;;;;;;;;;;15.10;99.90;;;14.36;100.00;95631.53;10485797;28;2847;-70
2022/09/09 21:49:23;;;;;;;;;;;15.20;99.90;;;14.29;100.00;95629.25;10488154;28;2955;-69
2022/09/09 21:54:30;;;;;;;;;;;15.20;99.90;;;13.96;100.00;95633.13;10489100;28;2882;-73
2022/09/09 21:59:32;;;;;;;;;;;15.00;99.90;;;13.69;100.00;95644.69;10486587;28;2879;-72
2022/09/09 22:04:36;;;;;;;;;;;14.80;99.90;;;13.50;100.00;95647.44;10484933;28;2866;-71
2022/09/09 22:09:39;;;;;;;;;;;14.50;99.90;;;13.39;100.00;95644.09;10485208;28;3268;-73
2022/09/09 22:14:41;;;;;;;;;;;14.40;99.90;;;13.32;100.00;95648.25;10483962;28;2862;-71
2022/09/09 22:19:44;;;;;;;;;;;14.40;99.90;;;13.22;100.00;95643.81;10483489;28;2928;-72
2022/09/09 22:24:47;;;;;;;;;;;14.30;99.90;;;13.25;100.00;95644.03;10481542;28;2902;-70
2022/09/09 22:29:51;;;;;;;;;;;14.20;99.90;;;13.17;100.00;95643.88;10487070;28;2229;-72
2022/09/09 22:34:55;;;;;;;;;;;14.10;99.90;;;13.19;100.00;95638.97;10489474;28;2951;-74
2022/09/09 22:39:58;;;;;;;;;;;14.10;99.90;;;13.22;100.00;95641.09;10484803;28;2925;-73
2022/09/09 22:45:01;;;;;;;;;;;14.20;99.90;;;13.13;100.00;95645.53;10457121;28;2895;-71
2022/09/09 22:50:04;;;;;;;;;;;14.20;99.90;;;13.12;100.00;95643.94;10484561;28;2343;-70
2022/09/09 22:55:08;;;;;;;;;;;14.10;99.90;;;13.15;100.00;95646.03;10481367;28;2335;-71
2022/09/09 23:00:13;;;;;;;;;;;14.10;99.90;;;13.03;100.00;95646.47;10492711;28;2347;-70
2022/09/09 23:05:20;;;;;;;;;;;14.00;99.90;;;12.86;100.00;95647.00;10485989;28;2846;-72